Time;durP1;ratioP1;P1;durP2;ratioP2;P2;SDS_P1;SDS_P2;PMS_P1;PMS_P2;Temp;Humidity;BMP_temperature;BMP_pressure;BME280_temperature;BME280_humidity;BME280_pressure;Samples;Min_cycle;Max_cycle;Signal;HPM_P1;HPM_P2
2021/11/27 00:01:22;;;;;;;5.10;4.60;;;3.00;99.90;;;;;;5153584;27;20221;-69
2021/11/27 00:03:54;;;;;;;7.33;4.70;;;3.00;99.90;;;;;;5152655;27;20710;-70
2021/11/27 00:06:22;;;;;;;9.13;5.87;;;2.90;99.90;;;;;;5149323;27;20189;-70
2021/11/27 00:08:51;;;;;;;5.90;5.30;;;2.90;99.90;;;;;;5151097;27;20203;-70
2021/11/27 00:11:20;;;;;;;8.47;5.70;;;2.90;99.90;;;;;;5157833;27;20246;-70
2021/11/27 00:13:48;;;;;;;8.37;6.43;;;3.00;99.90;;;;;;5154297;27;20583;-70
2021/11/27 00:16:17;;;;;;;9.30;6.90;;;3.00;99.90;;;;;;5150230;27;20198;-70
2021/11/27 00:18:46;;;;;;;7.60;6.30;;;3.00;99.90;;;;;;5150208;27;20647;-70
2021/11/27 00:21:20;;;;;;;9.40;6.37;;;3.00;99.90;;;;;;5144083;27;20202;-70
2021/11/27 00:23:50;;;;;;;9.37;6.33;;;3.00;99.90;;;;;;5155131;27;20220;-70
2021/11/27 00:26:20;;;;;;;10.50;6.97;;;3.10;99.90;;;;;;5149749;27;20204;-69
2021/11/27 00:28:49;;;;;;;8.10;6.43;;;3.00;99.90;;;;;;5142761;27;20680;-70
2021/11/27 00:31:23;;;;;;;8.30;6.57;;;3.00;99.90;;;;;;5146744;27;20190;-69
2021/11/27 00:33:52;;;;;;;9.73;6.47;;;2.90;99.90;;;;;;5143659;27;20698;-70
2021/11/27 00:36:22;;;;;;;9.50;6.70;;;2.80;99.90;;;;;;5147929;27;21079;-70
2021/11/27 00:38:52;;;;;;;9.60;6.57;;;2.80;99.90;;;;;;5153021;27;20193;-69
2021/11/27 00:41:21;;;;;;;9.73;6.97;;;2.70;99.90;;;;;;5145985;27;20623;-69
2021/11/27 00:43:50;;;;;;;10.63;6.83;;;2.60;99.90;;;;;;5144405;27;20235;-70
2021/11/27 00:46:19;;;;;;;9.33;6.63;;;2.50;99.90;;;;;;5136969;27;20198;-69
2021/11/27 00:48:49;;;;;;;9.10;6.03;;;2.50;99.90;;;;;;5125167;27;20198;-69
2021/11/27 00:51:21;;;;;;;9.93;6.07;;;2.40;99.90;;;;;;5139178;27;20320;-70
2021/11/27 00:53:51;;;;;;;10.10;6.40;;;2.30;99.90;;;;;;5158439;27;20235;-69
2021/11/27 00:56:21;;;;;;;10.70;5.87;;;2.20;99.90;;;;;;5143174;27;20229;-70
2021/11/27 00:58:49;;;;;;;9.30;6.77;;;2.10;99.90;;;;;;5142904;27;20194;-70
2021/11/27 01:01:24;;;;;;;13.03;6.90;;;2.10;99.90;;;;;;5141862;27;20202;-69
2021/11/27 01:03:53;;;;;;;10.80;7.13;;;2.00;99.90;;;;;;5131836;27;20199;-69
2021/11/27 01:06:26;;;;;;;9.73;6.47;;;2.00;99.90;;;;;;5140649;27;20214;-69
2021/11/27 01:08:59;;;;;;;12.10;6.60;;;1.90;99.90;;;;;;5150744;27;20558;-69
2021/11/27 01:11:30;;;;;;;9.60;6.40;;;1.90;99.90;;;;;;5121611;27;20216;-69
2021/11/27 01:14:00;;;;;;;11.10;6.67;;;1.90;99.90;;;;;;5121018;27;20185;-70
2021/11/27 01:16:32;;;;;;;16.47;6.80;;;1.90;99.90;;;;;;5143358;27;20189;-69
2021/11/27 01:19:01;;;;;;;12.23;7.00;;;1.90;99.90;;;;;;5138139;27;20206;-70
2021/11/27 01:21:32;;;;;;;18.03;7.80;;;1.90;99.90;;;;;;5138832;27;20216;-69
2021/11/27 01:24:05;;;;;;;9.63;6.83;;;1.80;99.90;;;;;;5125464;27;20221;-69
2021/11/27 01:26:35;;;;;;;13.93;6.93;;;1.70;99.90;;;;;;5141715;27;20240;-69
2021/11/27 01:29:03;;;;;;;18.87;6.80;;;1.70;99.90;;;;;;5148924;27;20197;-69
2021/11/27 01:31:33;;;;;;;12.07;7.57;;;1.70;99.90;;;;;;5149569;27;20190;-70
2021/11/27 01:34:02;;;;;;;14.50;7.13;;;1.70;99.90;;;;;;5138952;27;20210;-70
2021/11/27 01:36:30;;;;;;;16.37;6.67;;;1.70;99.90;;;;;;5136686;27;20201;-69
2021/11/27 01:39:01;;;;;;;10.97;7.10;;;1.70;99.90;;;;;;5138552;27;20189;-70
2021/11/27 01:41:30;;;;;;;16.13;7.50;;;1.70;99.90;;;;;;5149137;27;20219;-70
2021/11/27 01:43:58;;;;;;;10.20;6.33;;;1.60;99.90;;;;;;5143177;27;20640;-69
2021/11/27 01:46:27;;;;;;;10.83;6.70;;;1.60;99.90;;;;;;5143686;27;20186;-70
2021/11/27 01:48:56;;;;;;;11.20;6.40;;;1.60;99.90;;;;;;5117092;27;20189;-70
2021/11/27 01:51:25;;;;;;;12.43;6.80;;;1.60;99.90;;;;;;5145242;27;20783;-69
2021/11/27 01:53:57;;;;;;;8.73;6.03;;;1.60;99.90;;;;;;5148986;27;20191;-70
2021/11/27 01:56:30;;;;;;;15.90;6.90;;;1.70;99.90;;;;;;5148975;27;20192;-69
2021/11/27 01:58:59;;;;;;;11.60;6.70;;;1.70;99.90;;;;;;5142475;27;20193;-69
2021/11/27 02:01:30;;;;;;;12.60;6.50;;;1.70;99.90;;;;;;5138503;27;20706;-70
2021/11/27 02:04:00;;;;;;;14.87;6.57;;;1.60;99.90;;;;;;5141190;27;20258;-70
2021/11/27 02:06:29;;;;;;;14.17;6.57;;;1.60;99.90;;;;;;5135030;27;20205;-69
2021/11/27 02:09:00;;;;;;;10.23;7.00;;;1.60;99.90;;;;;;5141909;27;20196;-70
2021/11/27 02:11:34;;;;;;;15.10;6.40;;;1.60;99.90;;;;;;5138154;27;20264;-69
2021/11/27 02:14:04;;;;;;;10.23;6.63;;;1.60;99.90;;;;;;5146023;27;20583;-69
2021/11/27 02:16:33;;;;;;;12.97;6.80;;;1.50;99.90;;;;;;5140065;27;20589;-70
2021/11/27 02:19:02;;;;;;;10.57;6.70;;;1.50;99.90;;;;;;5142989;27;20196;-69
2021/11/27 02:21:34;;;;;;;16.00;7.00;;;1.50;99.90;;;;;;5137691;27;20205;-69
2021/11/27 02:24:04;;;;;;;17.10;7.00;;;1.50;99.90;;;;;;5110045;27;20681;-70
2021/11/27 02:26:37;;;;;;;14.10;7.00;;;1.50;99.90;;;;;;5141002;27;20201;-70
2021/11/27 02:29:10;;;;;;;14.43;6.90;;;1.50;99.90;;;;;;5143255;27;20692;-69
2021/11/27 02:31:39;;;;;;;15.53;7.47;;;1.40;99.90;;;;;;5141480;27;20189;-70
2021/11/27 02:34:09;;;;;;;14.13;6.70;;;1.40;99.90;;;;;;5126406;27;20670;-70
2021/11/27 02:36:41;;;;;;;13.17;6.90;;;1.40;99.90;;;;;;5144370;27;20544;-69
2021/11/27 02:39:13;;;;;;;18.37;7.27;;;1.30;99.90;;;;;;5131781;27;20238;-70
2021/11/27 02:41:43;;;;;;;17.00;7.77;;;1.30;99.90;;;;;;5144019;27;20675;-69
2021/11/27 02:44:12;;;;;;;22.07;7.10;;;1.30;99.90;;;;;;5141681;27;20276;-69
2021/11/27 02:46:40;;;;;;;20.00;7.00;;;1.30;99.90;;;;;;5118592;27;20956;-69
2021/11/27 02:49:09;;;;;;;15.97;7.10;;;1.20;99.90;;;;;;5124270;27;20222;-70
2021/11/27 02:51:40;;;;;;;21.27;7.87;;;1.20;99.90;;;;;;5145481;27;20647;-70
2021/11/27 02:54:08;;;;;;;18.63;8.03;;;1.20;99.90;;;;;;5138680;27;20206;-69
2021/11/27 02:56:38;;;;;;;19.90;7.80;;;1.10;99.90;;;;;;5142121;27;20200;-69
2021/11/27 02:59:12;;;;;;;23.00;7.97;;;1.20;99.90;;;;;;5137251;27;20844;-70
2021/11/27 03:01:43;;;;;;;17.30;7.60;;;1.10;99.90;;;;;;5143335;27;20209;-70
2021/11/27 03:04:13;;;;;;;24.17;7.60;;;1.10;99.90;;;;;;5146333;27;20655;-70
2021/11/27 03:06:44;;;;;;;21.27;7.30;;;1.10;99.90;;;;;;5153427;27;20217;-70
2021/11/27 03:09:16;;;;;;;22.17;8.07;;;1.10;99.90;;;;;;5141216;27;20198;-69
2021/11/27 03:11:46;;;;;;;18.03;8.00;;;1.10;99.90;;;;;;5139829;27;20242;-69
2021/11/27 03:14:14;;;;;;;20.63;8.07;;;1.00;99.90;;;;;;5143215;27;20697;-70
2021/11/27 03:16:43;;;;;;;26.43;7.93;;;1.00;99.90;;;;;;5144432;27;20193;-70
2021/11/27 03:19:27;;;;;;;24.00;8.10;;;1.00;99.90;;;;;;5141071;27;20246;-70
2021/11/27 03:21:57;;;;;;;28.17;8.43;;;1.00;99.90;;;;;;5150250;27;20601;-70
2021/11/27 03:24:26;;;;;;;27.20;8.10;;;0.90;99.90;;;;;;5128576;27;20599;-69
2021/11/27 03:26:55;;;;;;;22.73;8.17;;;0.90;99.90;;;;;;5146123;27;20752;-70
2021/11/27 03:29:24;;;;;;;27.77;8.60;;;0.80;99.90;;;;;;5108335;27;20601;-70
2021/11/27 03:31:57;;;;;;;32.03;9.53;;;0.80;99.90;;;;;;5128743;27;20668;-69
2021/11/27 03:34:26;;;;;;;17.00;7.63;;;0.70;99.90;;;;;;5146565;27;20208;-69
2021/11/27 03:36:55;;;;;;;25.27;7.77;;;0.60;99.90;;;;;;5142737;27;20570;-70
2021/11/27 03:39:25;;;;;;;21.97;8.20;;;0.50;99.90;;;;;;5129322;27;20655;-69
2021/11/27 03:41:53;;;;;;;29.07;9.80;;;0.40;99.90;;;;;;5155292;27;20248;-70
2021/11/27 03:44:22;;;;;;;40.10;9.40;;;0.40;99.90;;;;;;5155031;27;20232;-69
2021/11/27 03:46:51;;;;;;;21.63;8.80;;;0.50;99.90;;;;;;5124609;27;20707;-69
2021/11/27 03:49:24;;;;;;;25.40;8.87;;;0.50;99.90;;;;;;5146473;27;20263;-70
2021/11/27 03:51:53;;;;;;;32.40;10.50;;;0.50;99.90;;;;;;5144520;27;20224;-70
2021/11/27 03:54:24;;;;;;;27.23;9.90;;;0.50;99.90;;;;;;5148234;27;20204;-69
2021/11/27 03:56:54;;;;;;;41.57;10.23;;;0.50;99.90;;;;;;5144722;27;20677;-70
2021/11/27 03:59:23;;;;;;;40.73;11.50;;;0.50;99.90;;;;;;5154070;27;20212;-67
2021/11/27 04:01:54;;;;;;;29.47;10.10;;;0.40;99.90;;;;;;5117599;27;20190;-70
2021/11/27 04:04:23;;;;;;;35.67;10.83;;;0.40;99.90;;;;;;5152064;27;20192;-69
2021/11/27 04:06:56;;;;;;;36.47;11.50;;;0.40;99.90;;;;;;5105841;27;22522;-70
2021/11/27 04:09:26;;;;;;;32.43;10.13;;;0.40;99.90;;;;;;5133330;27;20652;-70
2021/11/27 04:11:54;;;;;;;34.70;10.50;;;0.40;99.90;;;;;;5147929;27;20231;-70
2021/11/27 04:14:23;;;;;;;55.87;12.00;;;0.40;99.90;;;;;;5132380;27;20235;-69
2021/11/27 04:16:52;;;;;;;31.93;10.70;;;0.40;99.90;;;;;;5149280;27;20189;-69
2021/11/27 04:19:21;;;;;;;32.13;11.03;;;0.30;99.90;;;;;;5133909;27;20921;-70
2021/11/27 04:21:50;;;;;;;30.83;10.80;;;0.20;99.90;;;;;;5151411;27;20202;-70
2021/11/27 04:24:18;;;;;;;39.03;12.80;;;0.10;99.90;;;;;;5148014;27;20231;-70
2021/11/27 04:26:49;;;;;;;35.80;10.67;;;0.10;99.90;;;;;;5144522;27;20209;-70
2021/11/27 04:29:17;;;;;;;32.43;11.40;;;0.10;99.90;;;;;;5150166;27;20193;-70
2021/11/27 04:31:47;;;;;;;36.97;10.97;;;0.00;99.90;;;;;;5145431;27;20202;-70
2021/11/27 04:34:16;;;;;;;39.57;10.50;;;0.00;99.90;;;;;;5145808;27;20182;-69
2021/11/27 04:36:44;;;;;;;44.47;11.40;;;-0.10;99.90;;;;;;5146746;27;20221;-70
2021/11/27 04:39:13;;;;;;;42.53;11.30;;;-0.10;99.90;;;;;;5150187;27;20285;-69
2021/11/27 04:41:42;;;;;;;29.20;10.60;;;-0.10;99.90;;;;;;5126677;27;20193;-70
2021/11/27 04:44:12;;;;;;;42.83;10.63;;;-0.20;99.90;;;;;;5149267;27;20590;-70
2021/11/27 04:46:41;;;;;;;35.20;10.33;;;-0.30;99.90;;;;;;5126536;27;20206;-69
2021/11/27 04:49:09;;;;;;;39.00;10.57;;;-0.30;99.90;;;;;;5149708;27;20205;-70
2021/11/27 04:51:38;;;;;;;44.27;10.87;;;-0.30;99.90;;;;;;5140593;27;20720;-69
2021/11/27 04:54:06;;;;;;;36.50;10.23;;;-0.30;99.90;;;;;;5147587;27;20694;-69
2021/11/27 04:56:35;;;;;;;35.03;11.23;;;-0.20;99.90;;;;;;5146717;27;20213;-70
2021/11/27 04:59:04;;;;;;;40.23;11.30;;;-0.20;99.90;;;;;;5141682;27;20694;-69
2021/11/27 05:01:34;;;;;;;42.73;11.53;;;-0.20;99.90;;;;;;5150596;27;20190;-70
2021/11/27 05:04:03;;;;;;;37.43;10.80;;;-0.20;99.90;;;;;;5148637;27;20246;-69
2021/11/27 05:06:32;;;;;;;34.87;11.87;;;-0.20;99.90;;;;;;5129703;27;20206;-70
2021/11/27 05:09:00;;;;;;;42.63;12.33;;;-0.20;99.90;;;;;;5152335;27;20233;-69
2021/11/27 05:11:29;;;;;;;47.50;12.07;;;-0.10;99.90;;;;;;5134733;27;20228;-70
2021/11/27 05:13:57;;;;;;;36.53;11.43;;;-0.10;99.90;;;;;;5150462;27;20196;-69
2021/11/27 05:16:26;;;;;;;50.00;12.10;;;0.00;99.90;;;;;;5148415;27;20605;-69
2021/11/27 05:18:56;;;;;;;36.73;11.67;;;-0.10;99.90;;;;;;5148958;27;20193;-70
2021/11/27 05:21:25;;;;;;;39.83;12.30;;;-0.10;99.90;;;;;;5150860;27;20185;-70
2021/11/27 05:23:53;;;;;;;38.60;12.17;;;-0.10;99.90;;;;;;5148182;27;20205;-69
2021/11/27 05:26:22;;;;;;;41.10;12.67;;;-0.10;99.90;;;;;;5120835;27;20691;-70
2021/11/27 05:28:51;;;;;;;47.50;12.33;;;-0.10;99.90;;;;;;5126961;27;20280;-69
2021/11/27 05:31:21;;;;;;;38.00;11.93;;;-0.10;99.90;;;;;;5146427;27;21319;-70
2021/11/27 05:34:20;;;;;;;48.40;13.13;;;-0.10;99.90;;;;;;5144034;27;20268;-70
2021/11/27 05:36:49;;;;;;;31.67;12.00;;;-0.10;99.90;;;;;;5144013;27;20648;-69
2021/11/27 05:39:18;;;;;;;36.80;11.33;;;-0.10;99.90;;;;;;5148451;27;20687;-69
2021/11/27 05:41:47;;;;;;;43.20;12.23;;;-0.10;99.90;;;;;;5124483;27;20223;-70
2021/11/27 05:44:16;;;;;;;47.90;12.47;;;-0.10;99.90;;;;;;5145796;27;20251;-69
2021/11/27 05:46:44;;;;;;;44.60;12.10;;;0.00;99.90;;;;;;5136872;27;20254;-69
2021/11/27 05:49:13;;;;;;;35.53;11.40;;;0.00;99.90;;;;;;5146518;27;20659;-70
2021/11/27 05:51:43;;;;;;;44.03;11.97;;;-0.10;99.90;;;;;;5131549;27;20288;-69
2021/11/27 05:54:13;;;;;;;47.70;11.70;;;-0.10;99.90;;;;;;5125546;27;20205;-69
2021/11/27 05:56:42;;;;;;;34.33;11.40;;;0.00;99.90;;;;;;5113742;27;20185;-67
2021/11/27 05:59:11;;;;;;;34.50;11.83;;;0.10;99.90;;;;;;5142722;27;20198;-68
2021/11/27 06:01:39;;;;;;;35.40;12.20;;;0.10;99.90;;;;;;5136546;27;20254;-68
2021/11/27 06:04:08;;;;;;;33.07;11.30;;;0.10;99.90;;;;;;5133885;27;20782;-68
2021/11/27 06:06:37;;;;;;;31.03;11.10;;;0.10;99.90;;;;;;5154929;27;20189;-68
2021/11/27 06:09:06;;;;;;;38.57;11.20;;;0.10;99.90;;;;;;5141637;27;20191;-67
2021/11/27 06:11:38;;;;;;;40.67;11.13;;;0.10;99.90;;;;;;5128222;27;20189;-68
2021/11/27 06:14:06;;;;;;;31.80;10.90;;;0.10;99.90;;;;;;5139944;27;20221;-68
2021/11/27 06:16:38;;;;;;;34.97;11.23;;;0.10;99.90;;;;;;5146293;27;20205;-68
2021/11/27 06:19:07;;;;;;;36.40;10.97;;;0.10;99.90;;;;;;5127272;27;20204;-68
2021/11/27 06:21:35;;;;;;;39.97;12.90;;;0.00;99.90;;;;;;5130206;27;20198;-68
2021/11/27 06:24:09;;;;;;;42.67;12.53;;;0.00;99.90;;;;;;5154907;27;20197;-68
2021/11/27 06:26:39;;;;;;;29.10;11.90;;;0.00;99.90;;;;;;5143479;27;20201;-68
2021/11/27 06:29:08;;;;;;;47.37;11.80;;;0.00;99.90;;;;;;5144293;27;20240;-68
2021/11/27 06:31:37;;;;;;;45.10;12.23;;;0.00;99.90;;;;;;5125983;27;20626;-68
2021/11/27 06:34:05;;;;;;;36.33;10.93;;;0.00;99.90;;;;;;5144361;27;20196;-67
2021/11/27 06:36:34;;;;;;;40.57;11.00;;;0.00;99.90;;;;;;5124756;27;20196;-68
2021/11/27 06:39:03;;;;;;;42.33;11.40;;;0.00;99.90;;;;;;5143532;27;20673;-68
2021/11/27 06:41:32;;;;;;;39.57;11.70;;;0.10;99.90;;;;;;5128144;27;20201;-68
2021/11/27 06:44:02;;;;;;;38.00;11.60;;;0.10;99.90;;;;;;5140101;27;20211;-68
2021/11/27 06:46:30;;;;;;;28.53;11.07;;;0.10;99.90;;;;;;5137377;27;20228;-67
2021/11/27 06:48:59;;;;;;;31.33;10.53;;;0.10;99.90;;;;;;5143440;27;20582;-68
2021/11/27 06:51:28;;;;;;;32.13;10.53;;;0.10;99.90;;;;;;5141975;27;20205;-68
2021/11/27 06:53:56;;;;;;;28.33;10.37;;;0.00;99.90;;;;;;5142635;27;20203;-68
2021/11/27 06:56:25;;;;;;;30.17;9.70;;;0.00;99.90;;;;;;5151948;27;20193;-68
2021/11/27 06:58:54;;;;;;;34.07;11.00;;;0.10;99.90;;;;;;5147301;27;20213;-68
2021/11/27 07:01:24;;;;;;;31.50;9.80;;;0.10;99.90;;;;;;5123691;27;20211;-68
2021/11/27 07:03:53;;;;;;;29.57;10.83;;;0.10;99.90;;;;;;5102021;27;20205;-68
2021/11/27 07:06:21;;;;;;;30.70;10.13;;;0.10;99.90;;;;;;5148157;27;20882;-68
2021/11/27 07:08:50;;;;;;;31.33;9.77;;;0.10;99.90;;;;;;5142439;27;20217;-68
2021/11/27 07:11:18;;;;;;;35.97;10.97;;;0.20;99.90;;;;;;5144873;27;20202;-68
2021/11/27 07:13:47;;;;;;;31.10;9.80;;;0.20;99.90;;;;;;5125006;27;20194;-68
2021/11/27 07:16:15;;;;;;;29.20;10.20;;;0.20;99.90;;;;;;5123109;27;20189;-68
2021/11/27 07:18:45;;;;;;;27.50;9.73;;;0.30;99.90;;;;;;5144399;27;20201;-68
2021/11/27 07:21:14;;;;;;;36.40;10.60;;;0.40;99.90;;;;;;5120879;27;20197;-68
2021/11/27 07:23:42;;;;;;;22.60;9.73;;;0.40;99.90;;;;;;5119096;27;20190;-68
2021/11/27 07:26:11;;;;;;;32.17;10.37;;;0.40;99.90;;;;;;5150799;27;20278;-68
2021/11/27 07:28:39;;;;;;;31.07;11.80;;;0.50;99.90;;;;;;5139553;27;20228;-68
2021/11/27 07:31:08;;;;;;;40.63;10.23;;;0.60;99.90;;;;;;5140843;27;20201;-68
2021/11/27 07:33:37;;;;;;;40.00;10.87;;;0.50;99.90;;;;;;5142917;27;20216;-68
2021/11/27 07:36:07;;;;;;;35.10;10.03;;;0.50;99.90;;;;;;5119145;27;20201;-68
2021/11/27 07:38:36;;;;;;;31.07;11.07;;;0.50;99.90;;;;;;5140791;27;20290;-68
2021/11/27 07:41:06;;;;;;;30.77;10.47;;;0.40;99.90;;;;;;5138936;27;20284;-68
2021/11/27 07:43:37;;;;;;;27.57;10.33;;;0.40;99.90;;;;;;5143472;27;20190;-68
2021/11/27 07:46:06;;;;;;;33.67;11.00;;;0.40;99.90;;;;;;5130084;27;20254;-68
2021/11/27 07:48:35;;;;;;;30.90;10.80;;;0.40;99.90;;;;;;5122681;27;20852;-68
2021/11/27 07:51:04;;;;;;;34.23;11.00;;;0.40;99.90;;;;;;5145928;27;20200;-68
2021/11/27 07:53:36;;;;;;;35.17;10.97;;;0.40;99.90;;;;;;5143190;27;20197;-68
2021/11/27 07:56:05;;;;;;;32.73;11.10;;;0.50;99.90;;;;;;5129834;27;20204;-68
2021/11/27 07:58:33;;;;;;;34.47;10.70;;;0.60;99.90;;;;;;5147188;27;20194;-68
2021/11/27 08:01:02;;;;;;;36.17;10.73;;;0.60;99.90;;;;;;5150054;27;20198;-68
2021/11/27 08:03:32;;;;;;;39.37;11.63;;;0.60;99.90;;;;;;5155863;27;20197;-67
2021/11/27 08:06:01;;;;;;;30.30;11.47;;;0.60;99.90;;;;;;5144620;27;20272;-68
2021/11/27 08:08:30;;;;;;;39.23;13.13;;;0.60;99.90;;;;;;5152971;27;20237;-68
2021/11/27 08:11:00;;;;;;;46.80;14.80;;;0.60;99.90;;;;;;5129998;27;20285;-68
2021/11/27 08:13:29;;;;;;;36.47;14.00;;;0.60;99.90;;;;;;5147560;27;20254;-68
2021/11/27 08:15:57;;;;;;;35.63;12.87;;;0.60;99.90;;;;;;5148165;27;20189;-68
2021/11/27 08:18:27;;;;;;;30.70;12.27;;;0.70;99.90;;;;;;5133366;27;20199;-68
2021/11/27 08:20:56;;;;;;;27.57;9.97;;;0.80;99.90;;;;;;5153487;27;20220;-68
2021/11/27 08:23:44;;;;;;;29.50;10.07;;;0.80;99.90;;;;;;5145713;27;20191;-68
2021/11/27 08:26:14;;;;;;;25.27;10.30;;;0.90;99.90;;;;;;5150198;27;20196;-68
2021/11/27 08:28:42;;;;;;;33.60;11.23;;;0.90;99.90;;;;;;5166765;27;20217;-68
2021/11/27 08:31:11;;;;;;;33.87;11.23;;;0.90;99.90;;;;;;5131232;27;20320;-68
2021/11/27 08:33:40;;;;;;;30.90;10.87;;;1.00;99.90;;;;;;5150971;27;20257;-67
2021/11/27 08:36:08;;;;;;;37.97;12.97;;;1.00;99.90;;;;;;5133570;27;20186;-67
2021/11/27 08:38:40;;;;;;;31.50;12.43;;;1.00;99.90;;;;;;5146456;27;20196;-67
2021/11/27 08:41:09;;;;;;;37.50;12.47;;;1.10;99.90;;;;;;5131424;27;20189;-67
2021/11/27 08:43:39;;;;;;;35.20;12.37;;;1.10;99.90;;;;;;5132922;27;20193;-67
2021/11/27 08:46:08;;;;;;;43.57;12.53;;;1.20;99.90;;;;;;5145202;27;20194;-68
2021/11/27 08:48:37;;;;;;;33.27;12.57;;;1.20;99.90;;;;;;5144943;27;20213;-68
2021/11/27 08:51:09;;;;;;;31.60;11.70;;;1.30;99.90;;;;;;5149667;27;20202;-69
2021/11/27 08:53:39;;;;;;;41.23;12.47;;;1.30;99.90;;;;;;5131527;27;20203;-69
2021/11/27 08:56:08;;;;;;;34.63;11.83;;;1.30;99.90;;;;;;5123749;27;20190;-69
2021/11/27 08:58:40;;;;;;;27.57;11.00;;;1.40;99.90;;;;;;5152438;27;20201;-68
2021/11/27 09:01:12;;;;;;;34.60;11.03;;;1.50;99.90;;;;;;5147973;27;20201;-69
2021/11/27 09:03:41;;;;;;;26.57;10.57;;;1.60;99.90;;;;;;5151622;27;20189;-69
2021/11/27 09:06:10;;;;;;;27.40;10.30;;;1.60;99.90;;;;;;5162351;27;20201;-69
2021/11/27 09:08:40;;;;;;;32.60;10.83;;;1.70;99.90;;;;;;5130393;27;20216;-69
2021/11/27 09:11:10;;;;;;;42.83;11.83;;;1.70;99.90;;;;;;5150550;27;20262;-69
2021/11/27 09:13:40;;;;;;;29.03;10.90;;;1.80;99.90;;;;;;5125239;27;20198;-70
2021/11/27 09:16:09;;;;;;;37.13;12.33;;;1.80;99.90;;;;;;5128302;27;20197;-69
2021/11/27 09:18:57;;;;;;;30.67;11.80;;;1.80;99.90;;;;;;5140740;27;20642;-69
2021/11/27 09:21:26;;;;;;;24.30;11.20;;;1.90;99.90;;;;;;5146732;27;20229;-69
2021/11/27 09:23:55;;;;;;;41.37;11.77;;;1.90;99.90;;;;;;5134575;27;20197;-69
2021/11/27 09:26:24;;;;;;;28.70;10.83;;;1.90;99.90;;;;;;5141714;27;20225;-69
2021/11/27 09:28:55;;;;;;;31.63;11.93;;;1.90;99.90;;;;;;5148654;27;20217;-69
2021/11/27 09:31:24;;;;;;;30.73;11.07;;;2.00;99.90;;;;;;5146634;27;20197;-70
2021/11/27 09:33:52;;;;;;;33.30;11.37;;;2.00;99.90;;;;;;5145662;27;20228;-69
2021/11/27 09:36:22;;;;;;;36.07;12.17;;;2.10;99.90;;;;;;5143710;27;20276;-69
2021/11/27 09:38:51;;;;;;;29.37;12.63;;;2.20;99.90;;;;;;5147450;27;20197;-69
2021/11/27 09:41:24;;;;;;;32.50;12.00;;;2.20;99.90;;;;;;5124463;27;20703;-69
2021/11/27 09:43:57;;;;;;;30.40;11.73;;;2.30;99.90;;;;;;5135771;27;20299;-70
2021/11/27 09:46:27;;;;;;;30.13;11.30;;;2.40;99.90;;;;;;5156289;27;20193;-70
2021/11/27 09:48:58;;;;;;;24.53;11.20;;;2.50;99.90;;;;;;5148033;27;20249;-70
2021/11/27 09:51:29;;;;;;;26.90;11.63;;;2.60;99.90;;;;;;5146592;27;20234;-69
2021/11/27 09:53:59;;;;;;;29.57;11.67;;;2.60;99.90;;;;;;5135651;27;20204;-69
2021/11/27 09:56:30;;;;;;;23.17;10.73;;;2.60;99.90;;;;;;5143774;27;20201;-69
2021/11/27 09:59:00;;;;;;;22.00;10.80;;;2.60;99.90;;;;;;5121146;27;20241;-69
2021/11/27 10:01:31;;;;;;;34.00;11.17;;;2.70;99.90;;;;;;5139740;27;20198;-69
2021/11/27 10:04:02;;;;;;;26.43;11.43;;;2.70;99.90;;;;;;5160596;27;20276;-70
2021/11/27 10:06:32;;;;;;;27.63;10.87;;;2.80;99.90;;;;;;5129868;27;20193;-70
2021/11/27 10:09:03;;;;;;;26.50;9.87;;;2.80;99.90;;;;;;5149167;27;20213;-68
2021/11/27 10:11:31;;;;;;;28.90;11.23;;;2.80;99.90;;;;;;5141663;27;20301;-69
2021/11/27 10:14:01;;;;;;;34.20;12.73;;;2.90;99.90;;;;;;5139455;27;20262;-69
2021/11/27 10:16:32;;;;;;;28.27;10.93;;;2.80;99.90;;;;;;5145785;27;20201;-69
2021/11/27 10:19:07;;;;;;;33.53;10.73;;;2.90;99.90;;;;;;5152123;27;20229;-69
2021/11/27 10:21:37;;;;;;;26.50;10.90;;;2.90;99.90;;;;;;5140187;27;20184;-69
2021/11/27 10:24:20;;;;;;;28.17;10.87;;;3.00;99.90;;;;;;5145476;27;20245;-69
2021/11/27 10:26:49;;;;;;;29.07;10.27;;;3.10;99.90;;;;;;5129208;27;20193;-70
2021/11/27 10:29:24;;;;;;;29.20;11.93;;;3.10;99.90;;;;;;5144133;27;20258;-69
2021/11/27 10:32:04;;;;;;;27.73;12.60;;;3.10;99.90;;;;;;5124408;27;20196;-69
2021/11/27 10:34:34;;;;;;;35.23;14.60;;;3.10;99.90;;;;;;5137907;27;20284;-69
2021/11/27 10:37:24;;;;;;;26.53;14.40;;;3.10;99.90;;;;;;5147353;27;20274;-69
2021/11/27 10:40:00;;;;;;;30.13;13.40;;;3.00;99.90;;;;;;5141519;27;20222;-69
2021/11/27 10:42:29;;;;;;;26.60;12.43;;;2.90;99.90;;;;;;5143774;27;20208;-69
2021/11/27 10:45:12;;;;;;;39.80;11.80;;;2.80;99.90;;;;;;5144873;27;20240;-70
2021/11/27 10:47:43;;;;;;;25.73;11.10;;;2.80;99.90;;;;;;5148159;27;20393;-69
2021/11/27 10:50:18;;;;;;;28.67;12.43;;;2.80;99.90;;;;;;5144725;27;20304;-70
2021/11/27 10:52:48;;;;;;;24.17;11.77;;;2.80;99.90;;;;;;5145035;27;20246;-69
2021/11/27 10:55:22;;;;;;;28.00;11.70;;;2.80;99.90;;;;;;5129520;27;20206;-69
2021/11/27 10:57:55;;;;;;;30.80;11.60;;;2.80;99.90;;;;;;5149580;27;20261;-69
2021/11/27 11:00:35;;;;;;;31.83;13.50;;;2.90;99.90;;;;;;5143528;27;20731;-70
2021/11/27 11:03:06;;;;;;;36.10;14.57;;;2.90;99.90;;;;;;5130752;27;20215;-69
2021/11/27 11:05:37;;;;;;;29.43;14.40;;;3.10;99.90;;;;;;5145033;27;20624;-69
2021/11/27 11:08:08;;;;;;;31.93;13.57;;;3.40;99.90;;;;;;5126151;27;20201;-69
2021/11/27 11:10:40;;;;;;;31.33;13.40;;;3.80;99.90;;;;;;5145796;27;20209;-69
2021/11/27 11:13:11;;;;;;;28.43;13.30;;;4.10;99.90;;;;;;5146620;27;20275;-70
2021/11/27 11:15:42;;;;;;;29.30;11.87;;;4.50;99.90;;;;;;5141975;27;20200;-69
2021/11/27 11:18:14;;;;;;;28.13;11.90;;;4.60;99.90;;;;;;5145786;27;20740;-70
2021/11/27 11:20:45;;;;;;;17.90;9.67;;;4.90;99.90;;;;;;5113498;27;20298;-70
2021/11/27 11:23:17;;;;;;;16.97;10.07;;;5.10;99.90;;;;;;5147146;27;20184;-70
2021/11/27 11:26:01;;;;;;;14.93;8.97;;;5.40;99.90;;;;;;5140948;27;20716;-69
2021/11/27 11:28:31;;;;;;;26.40;12.23;;;5.30;99.90;;;;;;5146430;27;20238;-70
2021/11/27 11:31:05;;;;;;;14.63;8.10;;;5.30;99.90;;;;;;5141731;27;20225;-70
2021/11/27 11:33:38;;;;;;;16.40;8.40;;;5.30;99.90;;;;;;5123217;27;20250;-70
2021/11/27 11:36:09;;;;;;;13.63;7.57;;;5.50;99.90;;;;;;5145046;27;20190;-70
2021/11/27 11:38:40;;;;;;;12.37;6.83;;;5.80;99.90;;;;;;5126573;27;20306;-70
2021/11/27 11:41:09;;;;;;;13.10;7.27;;;5.80;99.90;;;;;;5149384;27;20331;-70
2021/11/27 11:43:38;;;;;;;14.40;7.27;;;5.80;99.90;;;;;;5127578;27;20197;-70
2021/11/27 11:46:08;;;;;;;14.70;7.50;;;5.80;99.90;;;;;;5121962;27;20221;-70
2021/11/27 11:48:40;;;;;;;14.00;6.83;;;5.60;99.90;;;;;;5139934;27;20189;-70
2021/11/27 11:51:21;;;;;;;13.07;6.53;;;5.40;99.90;;;;;;5147145;27;20287;-70
2021/11/27 11:53:53;;;;;;;10.67;6.70;;;5.20;99.90;;;;;;5119417;27;20999;-70
2021/11/27 11:56:30;;;;;;;13.00;6.67;;;5.20;99.90;;;;;;5154886;27;20194;-70
2021/11/27 11:59:18;;;;;;;14.50;6.73;;;5.20;99.90;;;;;;5144877;27;20272;-70
2021/11/27 12:02:13;;;;;;;8.23;5.50;;;5.20;99.90;;;;;;5135323;27;20194;-70
2021/11/27 12:05:07;;;;;;;20.13;9.80;;;5.20;99.90;;;;;;5117918;27;20929;-69
2021/11/27 12:07:53;;;;;;;11.37;6.07;;;5.10;99.90;;;;;;5100118;27;20205;-70
2021/11/27 12:10:42;;;;;;;72.77;41.20;;;5.10;99.90;;;;;;5148416;27;20202;-69
2021/11/27 12:13:33;;;;;;;23.27;16.07;;;5.00;99.90;;;;;;5143986;27;20211;-69
2021/11/27 12:16:12;;;;;;;9.83;6.40;;;5.00;99.90;;;;;;5145894;27;20190;-70
2021/11/27 12:19:07;;;;;;;7.93;5.73;;;4.90;99.90;;;;;;5116467;27;20613;-70
2021/11/27 12:22:25;;;;;;;9.23;5.90;;;5.00;99.90;;;;;;5124100;27;20709;-69
2021/11/27 12:25:05;;;;;;;8.43;5.77;;;5.00;99.90;;;;;;5139333;27;20254;-70
2021/11/27 12:27:35;;;;;;;11.93;9.23;;;5.00;99.90;;;;;;5145972;27;20236;-70
2021/11/27 12:30:06;;;;;;;13.07;8.10;;;5.00;99.90;;;;;;5125592;27;20551;-69
2021/11/27 12:32:38;;;;;;;18.43;11.07;;;5.10;99.90;;;;;;5144866;27;20190;-69
2021/11/27 12:35:42;;;;;;;10.60;6.40;;;5.10;99.90;;;;;;5146391;27;20193;-70
2021/11/27 12:38:31;;;;;;;6.13;5.03;;;5.30;99.90;;;;;;5122667;27;21692;-69
2021/11/27 12:41:01;;;;;;;5.63;4.03;;;5.50;99.90;;;;;;5144169;27;20219;-69
2021/11/27 12:43:31;;;;;;;4.27;3.80;;;5.70;99.90;;;;;;5131069;27;20186;-69
2021/11/27 12:45:59;;;;;;;5.13;3.80;;;5.80;99.90;;;;;;5143719;27;20246;-70
2021/11/27 12:48:38;;;;;;;6.03;4.40;;;6.10;99.90;;;;;;5133531;27;20711;-70
2021/11/27 12:51:20;;;;;;;5.20;3.70;;;6.40;99.90;;;;;;5146793;27;20217;-70
2021/11/27 12:54:25;;;;;;;3.80;3.50;;;6.50;99.90;;;;;;5157711;27;20572;-70
2021/11/27 12:57:16;;;;;;;4.57;4.07;;;6.50;99.90;;;;;;5138022;27;22251;-70
2021/11/27 12:59:48;;;;;;;3.87;3.57;;;6.50;99.90;;;;;;5140038;27;20694;-70
2021/11/27 13:02:18;;;;;;;4.37;4.00;;;6.40;99.90;;;;;;5145758;27;20193;-70